Fedhaven, Florida
Current Conditions -  °F | °C
As of 6:55 PM on Wednesday 22 Oct 2014 (Local Time) from KBOW Reporting Station
Clear Clear  
Wind Chill: 26°   Ceiling: Unl
Heat Index: 26°   Visibility: 10mi
Dew Point: 14°   Wind: 5mph
Humidity: 47%   Direction: 20°NNE
Pressure: 29.95"   Gusts: NA
Location:  27.86°N, 81.41°W
Report Text: KBOW 222255Z AUTO 02004KT 10SM CLR 26/14 A2995 RMK AO2
Loading
Personal Weather Stations






























Interactive Weather Map
Tropical Storm Tracking
New forecast layout! Learn more

10-Day Weather Forecast

Advertisements
Track Severe Weather on mobile